487  
UXUS97 KREV 271350  
SRGREV  
 
SOARING FORECAST  
NATIONAL WEATHER SERVICE - RENO NV  
700 AM PDT WED OCT 27 2021  
 
THIS SOARING FORECAST IS FOR THE EASTERN SIERRA AND WESTERN NEVADA  
WITH SPECIFIC INDICES FOR THE GREATER RENO AREA.  
 
THIS FORECAST IS PREPARED DAILY BY 700 AM AND IS NOT UPDATED.  
 
FOR CURRENT FLIGHT CONDITIONS...FORECASTS...AND ADVISORIES...ACCESS  
YOUR LOCAL BRIEFING OUTLET OR FLIGHT SERVICE STATION.  
 
*******************************************************************  
FORECASTED LOCAL INDICES FOR RENO: TODAY YESTERDAY  
FORECASTED MAX TEMP AT RENO (DEG F)..... 63 56  
FORECASTED TRIGGER TEMPERATURE (DEG F).. 61 48  
EXCEEDED YESTERDAY BY 1255 PM PDT  
FORECASTED MAXIMUM ALTITUDE (FT MSL).... 9600 10400  
FORECASTED SOARING INDEX (FPM).......... 378 372  
FORECASTED K-INDEX.........VALID 18Z.... 22 15  
FORECASTED K-INDEX.........VALID 00Z.... 21 15  
FORECASTED LIFTED INDEX....VALID 18Z.... 6 12  
FORECASTED LIFTED INDEX....VALID 00Z.... 5 12  
 
AFTERNOON WINDS ALOFT FORECAST  
MSL (FT) WIND/TEMP  
9000 3416/+06  
10000 3318/+04  
12000 3321/+02  
14000 3122/-02  
16000 3123/-06  
18000 3125/-11  
24000 3131/-21  
30000 3134/-37  
34000 3136/-46  
39000 3137/-55  
 
SLIDE MOUNTAIN DATA:  
DATE TIME TEMP DEWPT RH WIND (MPH)  
(F) (F) | DIR SPEED GUST  
2021-10-27 05:30 35 35 100 | 349 12 23  
2021-10-27 05:20 35 35 100 | 349 17 33  
2021-10-27 05:00 34 34 100 | 356 13 25  
2021-10-27 04:50 34 34 100 | 326 14 30  
 
SIERRA CREST 8700 FT DATA:  
DATE TIME TEMP RH WIND  
DIR SPEED GUST  
2021-10-27 0600 35 100 270 28 37  
2021-10-27 0545 35 100 277 29 39  
2021-10-27 0530 35 100 278 31 41  
2021-10-27 0515 35 100 272 29 35  
 
RENO TAF FORECAST:  
KRNO 271120Z 2712/2812 VRB03KT P6SM SCT050  
FM271800 36004KT P6SM FEW060  
FM280200 VRB02KT P6SM SKC  
 
MINDEN TAF FORECAST:  
KMEV 271120Z 2712/2812 VRB03KT P6SM BKN040  
FM271600 VRB04KT P6SM FEW050  
FM280200 11005KT P6SM SKC  
 
OUTLOOK FOR THE RENO-CARSON CITY-MINDEN AREA:   
THURSDAY
 
SUNNY. HIGHS 60 TO 65. LIGHT WINDS BECOMING EAST  
AROUND 10 MPH IN THE AFTERNOON.  
 
SUNRISE AND SUNSET  
OCTOBER 27 2021.......SUNRISE 722 AM PDT SUNSET 603 PM PDT  
OCTOBER 28 2021.......SUNRISE 723 AM PDT SUNSET 602 PM PDT  
 
CLICK HERE TO GO TO PREVIOUS BULLETINS.

The Nexlab NV Page
The Nexlab CA Page Main Text Page